Latest Coastal Weather Observations for Low Head

IDT60701

Issued at 9:41 pm EST Monday 6 July 2015 (issued every 10 minutes, with the page automatically refreshed every 10 minutes)

About coastal observations | Map of coastal stations | Coastal observations for TAS | Marine services | Other Formats
Station Details ID: 091293 Name: LOW HEAD Lat: -41.05 Lon: 146.79 Height: 3.0 m
Data from the previous 72 hours. | See also: Recent months at Low Head
Date/Time
EST
Temp

°C
Wind Pressure Rain
since 9am
mm
Weather Cloud Vis
km
Sea
Height
m
Swell
Dir
 
Speed
knots
Gust
knots
hPa Trend Height
m
Period
s
Dir
06/09:30pm 6.1 SSE 16 21 1019.6 - 0.0 - - - - - - -
06/09:00pm 6.4 SSE 15 21 1019.3 - 0.0 - - - - - - -
06/08:30pm 6.4 SSE 14 20 1018.9 - 0.0 - - - - - - -
06/08:00pm 6.8 SSE 13 17 1018.5 - 0.0 - - - - - - -
06/07:30pm 7.1 SSE 13 19 1018.2 - 0.0 - - - - - - -
06/07:00pm 7.4 SSE 15 21 1017.8 - 0.0 - - - - - - -
06/06:30pm 7.6 SSE 12 17 1017.4 - 0.0 - - - - - - -
06/06:00pm 7.9 SSE 12 17 1017.0 - 0.0 - - - - - - -
06/05:30pm 8.3 SSE 14 21 1016.5 - 0.0 - - - - - - -
06/05:00pm 8.6 SSE 14 20 1016.1 - 0.0 - - - - - - -
06/04:30pm 9.0 SSE 17 22 1015.7 - 0.0 - - - - - - -
06/04:00pm 9.0 SSE 16 23 1015.4 - 0.0 - - - - - - -
06/03:30pm 9.1 SSE 15 20 1015.1 - 0.0 - - - - - - -
06/03:00pm 8.9 SSE 16 22 1014.8 - 0.0 - - - - - - -
06/02:30pm 8.9 SSE 16 22 1014.6 - 0.0 - - - - - - -
06/02:00pm 8.8 SSE 15 22 1014.5 - 0.0 - - - - - - -
06/01:30pm 8.4 SSE 15 21 1014.6 - 0.0 - - - - - - -
06/01:00pm 8.3 SSE 15 20 1014.6 - 0.0 - - - - - - -
06/12:30pm 8.0 SSE 15 19 1014.6 - 0.0 - - - - - - -
06/12:00pm 7.6 SSE 18 25 1014.7 - 0.0 - - - - - - -
06/11:30am 7.9 SSE 18 24 1014.8 - 0.0 - - - - - - -
06/11:00am 7.8 SSE 15 20 1014.9 - 0.0 - - - - - - -
06/10:30am 7.6 SSE 17 22 1014.8 - 0.0 - - - - - - -
06/10:00am 7.2 SSE 17 22 1014.6 - 0.0 - - - - - - -
06/09:30am 7.3 SSE 17 23 1014.7 - 0.0 - - - - - - -
06/09:00am 7.2 SSE 15 23 1014.4 - 18.0 - - - - - - -
06/08:30am 7.2 SSE 14 20 1014.0 - 18.0 - - - - - - -
06/08:00am 7.2 SSE 14 19 1013.7 - 18.0 - - - - - - -
06/07:30am 7.1 SSE 15 20 1013.5 - 18.0 - - - - - - -
06/07:00am 7.2 SSE 13 18 1013.2 - 18.0 - - - - - - -
06/06:30am 7.3 SSE 17 23 1012.9 - 17.8 - - - - - - -
06/06:00am 7.3 SSE 16 21 1012.7 - 17.8 - - - - - - -
06/05:30am 7.5 SSE 15 21 1012.8 - 17.8 - - - - - - -
06/05:00am 7.6 SSE 13 19 1012.6 - 17.8 - - - - - - -
06/04:30am 8.0 SSE 11 15 1012.6 - 17.8 - - - - - - -
06/04:00am 8.1 SSE 11 14 1012.8 - 17.8 - - - - - - -
06/03:30am 8.1 SSE 10 13 1012.7 - 17.8 - - - - - - -
06/03:00am 8.2 SSE 10 13 1012.9 - 17.8 - - - - - - -
06/02:30am 8.2 SSE 10 13 1013.0 - 17.8 - - - - - - -
06/02:00am 8.4 SSE 11 14 1013.0 - 17.8 - - - - - - -
06/01:30am 8.4 SSE 11 14 1013.0 - 17.8 - - - - - - -
06/01:00am 8.5 SSE 10 15 1013.0 - 17.4 - - - - - - -
06/12:30am 8.8 SSE 11 15 1013.1 - 16.4 - - - - - - -
06/12:00am 9.1 SSE 11 14 1013.4 - 15.2 Rain - - - - - -
 
Date/Time
EST
Temp

°C
Wind Pressure Rain
since 9am
mm
Weather Cloud Vis
km
Sea
Height
m
Swell
Dir
 
Speed
knots
Gust
knots
hPa Trend Height
m
Period
s
Dir
05/11:30pm 8.9 SSE 8 11 1013.5 - 14.4 - - - - - - -
05/11:00pm 9.1 SSE 10 14 1013.6 - 14.0 - - - - - - -
05/10:30pm 9.0 SSE 10 14 1013.5 - 13.6 - - - - - - -
05/10:00pm 9.2 SSE 13 17 1013.5 - 12.8 - - - - - - -
05/09:30pm 9.4 S 10 14 1013.6 - 12.6 - - - - - - -
05/09:00pm 9.6 S 11 13 1013.6 - 12.6 Recent precip. - - - - - -
05/08:30pm 9.9 S 11 14 1013.5 - 12.4 - - - - - - -
05/08:00pm 9.8 S 11 13 1013.2 - 12.4 - - - - - - -
05/07:30pm 9.9 SSE 11 14 1013.2 - 12.4 - - - - - - -
05/07:00pm 10.1 SSE 8 11 1013.1 - 12.4 - - - - - - -
05/06:30pm 10.4 SSE 9 12 1012.9 - 11.6 - - - - - - -
05/06:00pm 10.8 S 9 12 1012.8 - 10.6 Rain - - - - - -
05/05:30pm 11.6 SSW 6 8 1012.6 - 9.6 - - - - - - -
05/05:00pm 11.6 CALM 0 4 1012.5 - 9.4 - - - - - - -
05/04:30pm 11.3 CALM 0 0 1012.6 - 9.2 - - - - - - -
05/04:00pm 11.2 WSW 4 5 1012.8 - 8.0 - - - - - - -
05/03:30pm 11.1 W 6 7 1012.7 - 7.4 - - - - - - -
05/03:00pm 11.1 W 8 9 1012.7 - 6.8 Rain - - - - - -
05/02:30pm 11.3 W 7 10 1012.6 - 6.4 - - - - - - -
05/02:00pm 11.3 W 7 9 1012.8 - 6.4 - - - - - - -
05/01:30pm 11.2 WSW 6 8 1012.7 - 6.2 - - - - - - -
05/01:00pm 11.2 SW 4 6 1012.9 - 6.2 - - - - - - -
05/12:30pm 10.6 CALM 0 0 1013.0 - 6.2 - - - - - - -
05/12:00pm 10.4 S 5 6 1013.2 - 6.2 Recent precip. - - - - - -
05/11:30am 10.1 SSE 6 7 1013.6 - 5.8 - - - - - - -
05/11:00am 10.0 S 7 9 1013.9 - 5.4 - - - - - - -
05/10:30am 10.1 ESE 7 9 1013.9 - 4.4 - - - - - - -
05/10:00am 9.9 E 9 10 1013.8 - 4.0 - - - - - - -
05/09:30am 9.9 E 8 9 1014.2 - 1.6 - - - - - - -
05/09:00am 9.7 E 6 8 1014.5 - 3.2 Rain - - - - - -
05/08:30am 10.1 ENE 5 6 1014.5 - 2.2 - - - - - - -
05/08:00am 10.0 E 4 6 1014.4 - 1.8 - - - - - - -
05/07:30am 9.9 E 3 4 1014.3 - 1.8 - - - - - - -
05/07:00am 9.7 SSE 4 5 1014.2 - 1.6 - - - - - - -
05/06:30am 10.1 SSW 4 4 1014.2 - 1.2 - - - - - - -
05/06:00am 10.3 WSW 3 5 1014.3 - 1.2 Recent precip. - - - - - -
05/05:30am 10.2 WSW 5 6 1014.5 - 1.0 - - - - - - -
05/05:00am 10.3 W 7 9 1014.4 - 0.8 - - - - - - -
05/04:30am 10.7 WNW 10 11 1014.7 - 0.0 - - - - - - -
05/04:00am 11.1 W 10 12 1014.7 - 0.0 - - - - - - -
05/03:30am 11.1 WNW 11 13 1014.8 - 0.0 - - - - - - -
05/03:00am 11.1 W 11 13 1014.9 - 0.0 - - - - - - -
05/02:30am 11.1 W 13 15 1015.3 - 0.0 - - - - - - -
05/02:00am 11.0 W 14 16 1015.2 - 0.0 - - - - - - -
05/01:30am 11.2 W 16 19 1015.1 - 0.0 - - - - - - -
05/01:00am 11.3 W 19 22 1015.2 - 0.0 - - - - - - -
05/12:30am 11.1 WNW 19 22 1015.4 - 0.0 - - - - - - -
05/12:00am 11.3 WNW 20 22 1015.3 - 0.0 - - - - - - -
 
Date/Time
EST
Temp

°C
Wind Pressure Rain
since 9am
mm
Weather Cloud Vis
km
Sea
Height
m
Swell
Dir
 
Speed
knots
Gust
knots
hPa Trend Height
m
Period
s
Dir
04/11:30pm 11.2 WNW 20 23 1015.4 - 0.0 - - - - - - -
04/11:00pm 11.0 W 18 21 1015.5 - 0.0 - - - - - - -
04/10:30pm 11.3 W 19 22 1015.3 - 0.0 - - - - - - -
04/10:00pm 11.4 W 18 21 1015.2 - 0.0 - - - - - - -
04/09:30pm 11.3 W 18 21 1015.5 - 0.0 - - - - - - -
04/09:00pm 11.4 WNW 17 20 1015.5 - 0.0 - - - - - - -
04/08:30pm 11.5 W 15 18 1015.6 - 0.0 - - - - - - -
04/08:00pm 11.5 W 15 17 1015.5 - 0.0 - - - - - - -
04/07:30pm 11.4 W 13 17 1015.3 - 0.0 - - - - - - -
04/07:00pm 11.7 WSW 11 13 1015.3 - 0.0 - - - - - - -
04/06:30pm 11.9 WSW 15 18 1014.9 - 0.0 - - - - - - -
04/06:00pm 12.3 W 17 20 1014.5 - 0.0 - - - - - - -
04/05:30pm 12.3 W 13 15 1014.2 - 0.0 - - - - - - -
04/05:00pm 12.4 WSW 9 13 1014.1 - 0.0 - - - - - - -
04/04:30pm 12.8 WSW 13 15 1014.0 - 0.0 - - - - - - -
04/04:00pm 13.0 WSW 16 20 1013.8 - 0.0 - - - - - - -
04/03:30pm 12.9 W 15 17 1013.7 - 0.0 - - - - - - -
04/03:00pm 13.1 WNW 15 18 1013.7 - 0.0 - - - - - - -
04/02:30pm 13.6 WNW 13 15 1013.4 - 0.0 - - - - - - -
04/02:00pm 13.4 W 16 20 1013.3 - 0.0 - - - - - - -
04/01:30pm 13.5 WNW 18 21 1013.4 - 0.0 - - - - - - -
04/01:00pm 13.3 WNW 18 21 1013.5 - 0.0 - - - - - - -
04/12:30pm 13.2 WNW 22 26 1013.3 - 0.0 - - - - - - -
04/12:00pm 13.2 WNW 22 26 1013.5 - 0.0 - - - - - - -
04/11:30am 12.9 WNW 23 27 1013.8 - 0.0 - - - - - - -
04/11:00am 12.7 WNW 21 27 1014.0 - 0.0 - - - - - - -
04/10:30am 12.7 WNW 21 26 1014.2 - 0.0 - - - - - - -
04/10:00am 12.7 WNW 20 24 1014.1 - 0.0 - - - - - - -
04/09:30am 12.4 W 19 25 1013.9 - 0.0 - - - - - - -
04/09:00am 12.4 WNW 20 23 1014.0 - 0.6 - - - - - - -
04/08:30am 12.2 WNW 18 22 1013.9 - 0.6 - - - - - - -
04/08:00am 12.2 WNW 17 21 1013.9 - 0.6 - - - - - - -
04/07:30am 12.2 WNW 18 23 1014.0 - 0.6 - - - - - - -
04/07:00am 12.2 WNW 18 24 1014.0 - 0.6 - - - - - - -
04/06:30am 12.2 WNW 21 26 1014.1 - 0.6 - - - - - - -
04/06:00am 12.0 NW 20 26 1014.0 - 0.4 - - - - - - -
04/05:30am 12.2 NW 22 27 1014.0 - 0.4 - - - - - - -
04/05:00am 12.1 NW 22 27 1014.2 - 0.4 - - - - - - -
04/04:30am 11.8 WNW 19 23 1014.4 - 0.4 - - - - - - -
04/04:00am 11.8 WNW 23 27 1014.7 - 0.4 - - - - - - -
04/03:30am 11.7 WNW 23 28 1014.7 - 0.2 - - - - - - -
04/03:00am 12.1 WNW 22 25 1015.2 - 0.0 - - - - - - -
04/02:30am 11.8 WNW 20 23 1015.6 - 0.0 - - - - - - -
04/02:00am 11.7 WNW 20 25 1015.9 - 0.0 - - - - - - -
04/01:30am 11.4 WNW 19 23 1016.3 - 0.0 - - - - - - -
04/01:00am 10.9 WNW 17 21 1016.4 - 0.0 - - - - - - -
04/12:30am 10.7 WNW 20 23 1017.1 - 0.0 - - - - - - -
04/12:00am 10.6 WNW 21 27 1017.6 - 0.0 - - - - - - -
 
Date/Time
EST
Temp

°C
Wind Pressure Rain
since 9am
mm
Weather Cloud Vis
km
Sea
Height
m
Swell
Dir
 
Speed
knots
Gust
knots
hPa Trend Height
m
Period
s
Dir
03/11:30pm 10.5 W 24 30 1018.1 - 0.0 - - - - - - -
03/11:00pm 10.5 W 22 28 1018.3 - 0.0 - - - - - - -
03/10:30pm 10.3 WNW 20 24 1018.6 - 0.0 - - - - - - -
03/10:00pm 10.1 W 21 26 1019.1 - 0.0 - - - - - - -

Other Formats:

Comma delimited format used in spreadsheet applications
http://www.bom.gov.au/fwo/IDT60701/IDT60701.95964.axf

JavaScript Object Notation format (JSON) in row-major order
http://www.bom.gov.au/fwo/IDT60701/IDT60701.95964.json